sensor_id;sensor_type;location;lat;lon;timestamp;P1;durP1;ratioP1;P2;durP2;ratioP2
70322;SDS011;57735;56.264;43.898;2023-06-14T00:00:58;26.85;;;9.73;;
70322;SDS011;57735;56.264;43.898;2023-06-14T00:03:29;32.20;;;9.52;;
70322;SDS011;57735;56.264;43.898;2023-06-14T00:06:04;23.65;;;8.40;;
70322;SDS011;57735;56.264;43.898;2023-06-14T00:08:35;25.90;;;8.57;;
70322;SDS011;57735;56.264;43.898;2023-06-14T00:11:06;22.05;;;8.88;;
70322;SDS011;57735;56.264;43.898;2023-06-14T00:13:37;31.48;;;8.07;;
70322;SDS011;57735;56.264;43.898;2023-06-14T00:16:10;19.17;;;8.43;;
70322;SDS011;57735;56.264;43.898;2023-06-14T00:18:41;30.92;;;9.63;;
70322;SDS011;57735;56.264;43.898;2023-06-14T00:21:12;22.20;;;8.80;;
70322;SDS011;57735;56.264;43.898;2023-06-14T00:23:43;29.90;;;9.43;;
70322;SDS011;57735;56.264;43.898;2023-06-14T00:26:14;19.02;;;8.70;;
70322;SDS011;57735;56.264;43.898;2023-06-14T00:28:47;25.40;;;9.18;;
70322;SDS011;57735;56.264;43.898;2023-06-14T00:31:18;29.98;;;9.93;;
70322;SDS011;57735;56.264;43.898;2023-06-14T00:33:49;21.15;;;9.57;;
70322;SDS011;57735;56.264;43.898;2023-06-14T00:36:19;22.50;;;9.98;;
70322;SDS011;57735;56.264;43.898;2023-06-14T00:38:50;21.83;;;9.68;;
70322;SDS011;57735;56.264;43.898;2023-06-14T00:41:21;28.48;;;10.32;;
70322;SDS011;57735;56.264;43.898;2023-06-14T00:43:54;31.77;;;11.32;;
70322;SDS011;57735;56.264;43.898;2023-06-14T00:46:27;21.50;;;9.63;;
70322;SDS011;57735;56.264;43.898;2023-06-14T00:49:00;27.02;;;9.77;;
70322;SDS011;57735;56.264;43.898;2023-06-14T00:51:34;19.02;;;9.20;;
70322;SDS011;57735;56.264;43.898;2023-06-14T00:54:05;20.30;;;10.23;;
70322;SDS011;57735;56.264;43.898;2023-06-14T00:56:38;28.33;;;11.60;;
70322;SDS011;57735;56.264;43.898;2023-06-14T00:59:10;26.60;;;10.50;;
70322;SDS011;57735;56.264;43.898;2023-06-14T01:01:41;21.73;;;9.65;;
70322;SDS011;57735;56.264;43.898;2023-06-14T01:04:13;21.35;;;11.52;;
70322;SDS011;57735;56.264;43.898;2023-06-14T01:06:51;28.92;;;11.15;;
70322;SDS011;57735;56.264;43.898;2023-06-14T01:12:41;29.25;;;12.35;;
70322;SDS011;57735;56.264;43.898;2023-06-14T01:15:21;48.05;;;16.15;;
70322;SDS011;57735;56.264;43.898;2023-06-14T01:17:53;44.42;;;15.02;;
70322;SDS011;57735;56.264;43.898;2023-06-14T01:20:36;37.38;;;15.93;;
70322;SDS011;57735;56.264;43.898;2023-06-14T01:23:07;34.45;;;15.95;;
70322;SDS011;57735;56.264;43.898;2023-06-14T01:25:38;36.72;;;16.85;;
70322;SDS011;57735;56.264;43.898;2023-06-14T01:28:11;33.83;;;16.25;;
70322;SDS011;57735;56.264;43.898;2023-06-14T01:30:50;34.22;;;15.23;;
70322;SDS011;57735;56.264;43.898;2023-06-14T01:33:24;29.27;;;15.18;;
70322;SDS011;57735;56.264;43.898;2023-06-14T01:36:05;41.83;;;16.17;;
70322;SDS011;57735;56.264;43.898;2023-06-14T01:38:44;38.80;;;16.15;;
70322;SDS011;57735;56.264;43.898;2023-06-14T01:41:17;42.53;;;16.35;;
70322;SDS011;57735;56.264;43.898;2023-06-14T01:43:51;36.10;;;16.23;;
70322;SDS011;57735;56.264;43.898;2023-06-14T01:48:56;38.05;;;15.70;;
70322;SDS011;57735;56.264;43.898;2023-06-14T01:51:27;34.13;;;14.90;;
70322;SDS011;57735;56.264;43.898;2023-06-14T01:53:58;32.83;;;15.00;;
70322;SDS011;57735;56.264;43.898;2023-06-14T01:56:30;38.33;;;14.88;;
70322;SDS011;57735;56.264;43.898;2023-06-14T01:59:02;34.00;;;14.10;;
70322;SDS011;57735;56.264;43.898;2023-06-14T02:01:35;41.45;;;14.60;;
70322;SDS011;57735;56.264;43.898;2023-06-14T02:04:06;30.77;;;12.27;;
70322;SDS011;57735;56.264;43.898;2023-06-14T02:06:40;28.75;;;11.68;;
70322;SDS011;57735;56.264;43.898;2023-06-14T02:09:11;26.60;;;11.30;;
70322;SDS011;57735;56.264;43.898;2023-06-14T02:11:41;29.63;;;11.52;;
70322;SDS011;57735;56.264;43.898;2023-06-14T02:14:12;27.33;;;11.52;;
70322;SDS011;57735;56.264;43.898;2023-06-14T02:16:45;27.90;;;9.55;;
70322;SDS011;57735;56.264;43.898;2023-06-14T02:19:19;25.60;;;10.65;;
70322;SDS011;57735;56.264;43.898;2023-06-14T02:21:52;21.23;;;8.45;;
70322;SDS011;57735;56.264;43.898;2023-06-14T02:24:23;17.30;;;7.45;;
70322;SDS011;57735;56.264;43.898;2023-06-14T02:26:54;22.17;;;7.75;;
70322;SDS011;57735;56.264;43.898;2023-06-14T02:29:25;20.50;;;6.68;;
70322;SDS011;57735;56.264;43.898;2023-06-14T02:31:58;12.93;;;5.55;;
70322;SDS011;57735;56.264;43.898;2023-06-14T02:34:29;12.55;;;4.95;;
70322;SDS011;57735;56.264;43.898;2023-06-14T02:37:00;16.73;;;4.57;;
70322;SDS011;57735;56.264;43.898;2023-06-14T02:39:34;13.70;;;2.67;;
70322;SDS011;57735;56.264;43.898;2023-06-14T02:42:05;12.88;;;3.30;;
70322;SDS011;57735;56.264;43.898;2023-06-14T02:44:39;10.20;;;2.65;;
70322;SDS011;57735;56.264;43.898;2023-06-14T02:47:12;9.15;;;2.80;;
70322;SDS011;57735;56.264;43.898;2023-06-14T02:49:43;4.82;;;2.55;;
70322;SDS011;57735;56.264;43.898;2023-06-14T02:52:16;9.45;;;3.10;;
70322;SDS011;57735;56.264;43.898;2023-06-14T02:54:47;5.43;;;2.50;;
70322;SDS011;57735;56.264;43.898;2023-06-14T02:57:18;5.68;;;2.10;;
70322;SDS011;57735;56.264;43.898;2023-06-14T02:59:49;6.13;;;1.88;;
70322;SDS011;57735;56.264;43.898;2023-06-14T03:02:20;6.70;;;2.60;;
70322;SDS011;57735;56.264;43.898;2023-06-14T03:04:51;7.28;;;2.50;;
70322;SDS011;57735;56.264;43.898;2023-06-14T03:07:22;5.07;;;2.47;;
70322;SDS011;57735;56.264;43.898;2023-06-14T03:09:55;8.50;;;2.40;;
70322;SDS011;57735;56.264;43.898;2023-06-14T03:12:25;11.45;;;2.83;;
70322;SDS011;57735;56.264;43.898;2023-06-14T03:14:56;14.63;;;3.03;;
70322;SDS011;57735;56.264;43.898;2023-06-14T03:17:27;6.82;;;2.35;;
70322;SDS011;57735;56.264;43.898;2023-06-14T03:20:00;7.13;;;2.40;;
70322;SDS011;57735;56.264;43.898;2023-06-14T03:22:31;7.38;;;2.67;;
70322;SDS011;57735;56.264;43.898;2023-06-14T03:25:04;8.40;;;2.88;;
70322;SDS011;57735;56.264;43.898;2023-06-14T03:27:37;4.93;;;2.30;;
70322;SDS011;57735;56.264;43.898;2023-06-14T03:30:08;6.93;;;2.78;;
70322;SDS011;57735;56.264;43.898;2023-06-14T03:32:39;8.30;;;2.78;;
70322;SDS011;57735;56.264;43.898;2023-06-14T03:35:10;16.48;;;3.72;;
70322;SDS011;57735;56.264;43.898;2023-06-14T03:37:47;17.80;;;6.90;;
70322;SDS011;57735;56.264;43.898;2023-06-14T03:40:18;18.23;;;6.72;;
70322;SDS011;57735;56.264;43.898;2023-06-14T03:42:55;17.40;;;5.50;;
70322;SDS011;57735;56.264;43.898;2023-06-14T03:45:26;11.73;;;3.88;;
70322;SDS011;57735;56.264;43.898;2023-06-14T03:47:57;7.65;;;3.75;;
70322;SDS011;57735;56.264;43.898;2023-06-14T03:50:28;7.50;;;3.10;;
70322;SDS011;57735;56.264;43.898;2023-06-14T03:53:04;12.30;;;3.55;;
70322;SDS011;57735;56.264;43.898;2023-06-14T03:55:35;6.32;;;2.88;;
70322;SDS011;57735;56.264;43.898;2023-06-14T03:58:08;7.32;;;2.50;;
70322;SDS011;57735;56.264;43.898;2023-06-14T04:00:39;7.13;;;2.38;;
70322;SDS011;57735;56.264;43.898;2023-06-14T04:03:10;11.27;;;3.03;;
70322;SDS011;57735;56.264;43.898;2023-06-14T04:05:43;7.57;;;2.70;;
70322;SDS011;57735;56.264;43.898;2023-06-14T04:08:14;6.00;;;2.25;;
70322;SDS011;57735;56.264;43.898;2023-06-14T04:10:46;8.23;;;2.95;;
70322;SDS011;57735;56.264;43.898;2023-06-14T04:13:16;12.48;;;2.60;;
70322;SDS011;57735;56.264;43.898;2023-06-14T04:15:47;5.93;;;2.45;;
70322;SDS011;57735;56.264;43.898;2023-06-14T04:18:21;12.73;;;2.85;;
70322;SDS011;57735;56.264;43.898;2023-06-14T04:20:52;6.53;;;2.42;;
70322;SDS011;57735;56.264;43.898;2023-06-14T04:23:23;6.80;;;2.63;;
70322;SDS011;57735;56.264;43.898;2023-06-14T04:28:32;5.13;;;2.50;;
70322;SDS011;57735;56.264;43.898;2023-06-14T04:31:07;11.70;;;2.30;;
70322;SDS011;57735;56.264;43.898;2023-06-14T04:33:38;7.55;;;2.45;;
70322;SDS011;57735;56.264;43.898;2023-06-14T04:36:13;6.93;;;2.35;;
70322;SDS011;57735;56.264;43.898;2023-06-14T04:38:47;10.45;;;2.63;;
70322;SDS011;57735;56.264;43.898;2023-06-14T04:41:21;4.67;;;2.27;;
70322;SDS011;57735;56.264;43.898;2023-06-14T04:43:53;9.60;;;2.80;;
70322;SDS011;57735;56.264;43.898;2023-06-14T04:46:24;6.35;;;1.98;;
70322;SDS011;57735;56.264;43.898;2023-06-14T04:48:55;9.35;;;2.75;;
70322;SDS011;57735;56.264;43.898;2023-06-14T04:51:26;8.20;;;2.25;;
70322;SDS011;57735;56.264;43.898;2023-06-14T04:53:59;4.35;;;1.83;;
70322;SDS011;57735;56.264;43.898;2023-06-14T04:56:34;7.90;;;2.35;;
70322;SDS011;57735;56.264;43.898;2023-06-14T04:59:05;8.17;;;2.50;;
70322;SDS011;57735;56.264;43.898;2023-06-14T05:01:38;11.15;;;2.50;;
70322;SDS011;57735;56.264;43.898;2023-06-14T05:04:12;7.22;;;2.58;;
70322;SDS011;57735;56.264;43.898;2023-06-14T05:06:43;9.85;;;2.45;;
70322;SDS011;57735;56.264;43.898;2023-06-14T05:09:15;8.40;;;2.47;;
70322;SDS011;57735;56.264;43.898;2023-06-14T05:11:48;9.32;;;3.10;;
70322;SDS011;57735;56.264;43.898;2023-06-14T05:14:20;10.95;;;2.60;;
70322;SDS011;57735;56.264;43.898;2023-06-14T05:16:52;8.88;;;2.95;;
70322;SDS011;57735;56.264;43.898;2023-06-14T05:19:23;7.55;;;2.83;;
70322;SDS011;57735;56.264;43.898;2023-06-14T05:21:54;11.63;;;2.72;;
70322;SDS011;57735;56.264;43.898;2023-06-14T05:24:25;16.67;;;3.10;;
70322;SDS011;57735;56.264;43.898;2023-06-14T05:26:56;14.13;;;2.90;;
70322;SDS011;57735;56.264;43.898;2023-06-14T05:29:27;8.80;;;2.92;;
70322;SDS011;57735;56.264;43.898;2023-06-14T05:31:58;6.15;;;2.97;;
70322;SDS011;57735;56.264;43.898;2023-06-14T05:34:29;13.65;;;3.88;;
70322;SDS011;57735;56.264;43.898;2023-06-14T05:37:02;7.00;;;2.50;;
70322;SDS011;57735;56.264;43.898;2023-06-14T05:39:34;7.38;;;2.88;;
70322;SDS011;57735;56.264;43.898;2023-06-14T05:42:05;12.50;;;3.22;;
70322;SDS011;57735;56.264;43.898;2023-06-14T05:44:36;10.23;;;2.95;;
70322;SDS011;57735;56.264;43.898;2023-06-14T05:47:09;9.05;;;2.97;;
70322;SDS011;57735;56.264;43.898;2023-06-14T05:49:40;9.00;;;2.83;;
70322;SDS011;57735;56.264;43.898;2023-06-14T05:52:11;14.57;;;3.05;;
70322;SDS011;57735;56.264;43.898;2023-06-14T05:54:43;8.55;;;2.95;;
70322;SDS011;57735;56.264;43.898;2023-06-14T05:57:17;8.80;;;3.20;;
70322;SDS011;57735;56.264;43.898;2023-06-14T05:59:48;10.55;;;2.75;;
70322;SDS011;57735;56.264;43.898;2023-06-14T06:02:18;7.20;;;2.53;;
70322;SDS011;57735;56.264;43.898;2023-06-14T06:04:49;7.05;;;2.63;;
70322;SDS011;57735;56.264;43.898;2023-06-14T06:07:20;4.45;;;2.20;;
70322;SDS011;57735;56.264;43.898;2023-06-14T06:09:52;5.03;;;2.22;;
70322;SDS011;57735;56.264;43.898;2023-06-14T06:12:23;3.60;;;1.98;;
70322;SDS011;57735;56.264;43.898;2023-06-14T06:14:53;4.07;;;2.22;;
70322;SDS011;57735;56.264;43.898;2023-06-14T06:17:28;6.05;;;2.08;;
70322;SDS011;57735;56.264;43.898;2023-06-14T06:20:01;6.32;;;2.17;;
70322;SDS011;57735;56.264;43.898;2023-06-14T06:22:34;18.92;;;2.28;;
70322;SDS011;57735;56.264;43.898;2023-06-14T06:25:05;71.03;;;5.55;;
70322;SDS011;57735;56.264;43.898;2023-06-14T06:27:39;15.85;;;2.22;;
70322;SDS011;57735;56.264;43.898;2023-06-14T06:30:10;27.15;;;2.97;;
70322;SDS011;57735;56.264;43.898;2023-06-14T06:32:42;10.43;;;1.77;;
70322;SDS011;57735;56.264;43.898;2023-06-14T06:35:13;8.13;;;2.03;;
70322;SDS011;57735;56.264;43.898;2023-06-14T06:37:46;4.78;;;2.25;;
70322;SDS011;57735;56.264;43.898;2023-06-14T06:40:17;10.38;;;2.22;;
70322;SDS011;57735;56.264;43.898;2023-06-14T06:42:48;5.28;;;2.33;;
70322;SDS011;57735;56.264;43.898;2023-06-14T06:45:20;6.05;;;2.20;;
70322;SDS011;57735;56.264;43.898;2023-06-14T06:47:51;6.90;;;2.15;;
70322;SDS011;57735;56.264;43.898;2023-06-14T06:50:26;3.53;;;2.60;;
70322;SDS011;57735;56.264;43.898;2023-06-14T06:52:57;6.45;;;2.40;;
70322;SDS011;57735;56.264;43.898;2023-06-14T06:55:28;7.13;;;2.20;;
70322;SDS011;57735;56.264;43.898;2023-06-14T06:58:01;6.47;;;2.30;;
70322;SDS011;57735;56.264;43.898;2023-06-14T07:00:32;3.50;;;2.00;;
70322;SDS011;57735;56.264;43.898;2023-06-14T07:03:03;8.88;;;2.22;;
70322;SDS011;57735;56.264;43.898;2023-06-14T07:05:34;5.07;;;2.88;;
70322;SDS011;57735;56.264;43.898;2023-06-14T07:08:05;4.13;;;2.13;;
70322;SDS011;57735;56.264;43.898;2023-06-14T07:10:36;4.60;;;2.25;;
70322;SDS011;57735;56.264;43.898;2023-06-14T07:13:07;8.57;;;2.03;;
70322;SDS011;57735;56.264;43.898;2023-06-14T07:15:41;5.32;;;1.77;;
70322;SDS011;57735;56.264;43.898;2023-06-14T07:18:12;4.72;;;2.35;;
70322;SDS011;57735;56.264;43.898;2023-06-14T07:20:43;4.95;;;1.98;;
70322;SDS011;57735;56.264;43.898;2023-06-14T07:23:14;8.18;;;2.25;;
70322;SDS011;57735;56.264;43.898;2023-06-14T07:25:45;8.55;;;1.65;;
70322;SDS011;57735;56.264;43.898;2023-06-14T07:28:16;3.92;;;2.28;;
70322;SDS011;57735;56.264;43.898;2023-06-14T07:30:51;7.45;;;2.30;;
70322;SDS011;57735;56.264;43.898;2023-06-14T07:33:27;3.40;;;1.83;;
70322;SDS011;57735;56.264;43.898;2023-06-14T07:36:01;5.65;;;2.20;;
70322;SDS011;57735;56.264;43.898;2023-06-14T07:38:32;24.20;;;3.30;;
70322;SDS011;57735;56.264;43.898;2023-06-14T07:41:03;35.22;;;4.97;;
70322;SDS011;57735;56.264;43.898;2023-06-14T07:43:34;7.70;;;2.40;;
70322;SDS011;57735;56.264;43.898;2023-06-14T07:46:05;35.60;;;3.35;;
70322;SDS011;57735;56.264;43.898;2023-06-14T07:48:36;13.85;;;2.25;;
70322;SDS011;57735;56.264;43.898;2023-06-14T07:51:07;19.40;;;3.60;;
70322;SDS011;57735;56.264;43.898;2023-06-14T07:53:38;9.95;;;2.50;;
70322;SDS011;57735;56.264;43.898;2023-06-14T07:56:09;7.35;;;2.25;;
70322;SDS011;57735;56.264;43.898;2023-06-14T07:58:40;4.90;;;2.03;;
70322;SDS011;57735;56.264;43.898;2023-06-14T08:01:11;6.53;;;2.00;;
70322;SDS011;57735;56.264;43.898;2023-06-14T08:03:42;8.18;;;2.10;;
70322;SDS011;57735;56.264;43.898;2023-06-14T08:06:16;8.23;;;1.92;;
70322;SDS011;57735;56.264;43.898;2023-06-14T08:08:47;7.00;;;2.00;;
70322;SDS011;57735;56.264;43.898;2023-06-14T08:11:21;4.13;;;2.10;;
70322;SDS011;57735;56.264;43.898;2023-06-14T08:13:54;7.05;;;2.10;;
70322;SDS011;57735;56.264;43.898;2023-06-14T08:16:25;5.50;;;2.20;;
70322;SDS011;57735;56.264;43.898;2023-06-14T08:18:58;3.30;;;1.95;;
70322;SDS011;57735;56.264;43.898;2023-06-14T08:21:29;9.32;;;1.92;;
70322;SDS011;57735;56.264;43.898;2023-06-14T08:24:00;4.28;;;2.10;;
70322;SDS011;57735;56.264;43.898;2023-06-14T08:26:31;12.57;;;2.20;;
70322;SDS011;57735;56.264;43.898;2023-06-14T08:29:02;5.40;;;2.45;;
70322;SDS011;57735;56.264;43.898;2023-06-14T08:31:33;7.53;;;2.53;;
70322;SDS011;57735;56.264;43.898;2023-06-14T08:34:04;6.53;;;2.00;;
70322;SDS011;57735;56.264;43.898;2023-06-14T08:36:36;4.05;;;1.88;;
70322;SDS011;57735;56.264;43.898;2023-06-14T08:39:07;6.03;;;2.90;;
70322;SDS011;57735;56.264;43.898;2023-06-14T08:41:45;6.78;;;1.90;;
70322;SDS011;57735;56.264;43.898;2023-06-14T08:44:18;12.65;;;2.47;;
70322;SDS011;57735;56.264;43.898;2023-06-14T08:46:53;7.30;;;2.17;;
70322;SDS011;57735;56.264;43.898;2023-06-14T08:49:27;6.57;;;2.17;;
70322;SDS011;57735;56.264;43.898;2023-06-14T08:52:00;8.98;;;2.50;;
70322;SDS011;57735;56.264;43.898;2023-06-14T08:54:31;7.70;;;2.50;;
70322;SDS011;57735;56.264;43.898;2023-06-14T08:57:06;4.00;;;1.95;;
70322;SDS011;57735;56.264;43.898;2023-06-14T08:59:39;9.75;;;2.33;;
70322;SDS011;57735;56.264;43.898;2023-06-14T09:02:17;3.65;;;2.20;;
70322;SDS011;57735;56.264;43.898;2023-06-14T09:04:50;8.07;;;2.65;;
70322;SDS011;57735;56.264;43.898;2023-06-14T09:07:21;5.53;;;3.20;;
70322;SDS011;57735;56.264;43.898;2023-06-14T09:10:04;6.20;;;2.67;;
70322;SDS011;57735;56.264;43.898;2023-06-14T09:12:37;7.07;;;2.92;;
70322;SDS011;57735;56.264;43.898;2023-06-14T09:15:09;4.63;;;2.17;;
70322;SDS011;57735;56.264;43.898;2023-06-14T09:17:40;5.57;;;1.83;;
70322;SDS011;57735;56.264;43.898;2023-06-14T09:20:12;6.18;;;2.33;;
70322;SDS011;57735;56.264;43.898;2023-06-14T09:22:51;7.32;;;2.13;;
70322;SDS011;57735;56.264;43.898;2023-06-14T09:25:25;6.93;;;2.33;;
70322;SDS011;57735;56.264;43.898;2023-06-14T09:27:57;5.38;;;2.40;;
70322;SDS011;57735;56.264;43.898;2023-06-14T09:30:31;8.48;;;2.13;;
70322;SDS011;57735;56.264;43.898;2023-06-14T09:33:02;5.82;;;2.22;;
70322;SDS011;57735;56.264;43.898;2023-06-14T09:35:33;5.20;;;2.13;;
70322;SDS011;57735;56.264;43.898;2023-06-14T09:38:04;9.35;;;2.65;;
70322;SDS011;57735;56.264;43.898;2023-06-14T09:40:36;306.25;;;19.77;;
70322;SDS011;57735;56.264;43.898;2023-06-14T09:43:08;23.10;;;3.92;;
70322;SDS011;57735;56.264;43.898;2023-06-14T09:45:40;8.43;;;2.47;;
70322;SDS011;57735;56.264;43.898;2023-06-14T09:48:11;7.10;;;2.22;;
70322;SDS011;57735;56.264;43.898;2023-06-14T09:50:47;57.70;;;5.93;;
70322;SDS011;57735;56.264;43.898;2023-06-14T09:53:21;8.95;;;2.30;;
70322;SDS011;57735;56.264;43.898;2023-06-14T09:55:55;6.47;;;2.28;;
70322;SDS011;57735;56.264;43.898;2023-06-14T09:58:28;5.22;;;2.20;;
70322;SDS011;57735;56.264;43.898;2023-06-14T10:01:01;5.40;;;2.47;;
70322;SDS011;57735;56.264;43.898;2023-06-14T10:03:34;4.25;;;2.50;;
70322;SDS011;57735;56.264;43.898;2023-06-14T10:06:09;5.10;;;2.25;;
70322;SDS011;57735;56.264;43.898;2023-06-14T10:08:40;20.42;;;3.75;;
70322;SDS011;57735;56.264;43.898;2023-06-14T10:11:12;15.32;;;2.53;;
70322;SDS011;57735;56.264;43.898;2023-06-14T10:13:44;10.23;;;2.50;;
70322;SDS011;57735;56.264;43.898;2023-06-14T10:16:18;16.05;;;2.75;;
70322;SDS011;57735;56.264;43.898;2023-06-14T10:19:10;5.95;;;2.30;;
70322;SDS011;57735;56.264;43.898;2023-06-14T10:24:37;9.88;;;2.33;;
70322;SDS011;57735;56.264;43.898;2023-06-14T11:00:53;6.43;;;2.92;;
70322;SDS011;57735;56.264;43.898;2023-06-14T11:03:43;4.65;;;2.40;;
70322;SDS011;57735;56.264;43.898;2023-06-14T11:06:25;6.43;;;2.40;;
70322;SDS011;57735;56.264;43.898;2023-06-14T11:09:12;5.97;;;2.35;;
70322;SDS011;57735;56.264;43.898;2023-06-14T11:11:51;5.90;;;2.33;;
70322;SDS011;57735;56.264;43.898;2023-06-14T11:14:29;5.07;;;2.10;;
70322;SDS011;57735;56.264;43.898;2023-06-14T11:17:01;5.22;;;2.10;;
70322;SDS011;57735;56.264;43.898;2023-06-14T11:19:32;10.10;;;2.50;;
70322;SDS011;57735;56.264;43.898;2023-06-14T11:22:03;8.20;;;2.40;;
70322;SDS011;57735;56.264;43.898;2023-06-14T11:24:34;5.10;;;2.58;;
70322;SDS011;57735;56.264;43.898;2023-06-14T11:27:07;5.55;;;2.60;;
70322;SDS011;57735;56.264;43.898;2023-06-14T11:29:47;8.73;;;2.45;;
70322;SDS011;57735;56.264;43.898;2023-06-14T11:32:18;4.40;;;2.55;;
70322;SDS011;57735;56.264;43.898;2023-06-14T11:34:49;7.93;;;2.20;;
70322;SDS011;57735;56.264;43.898;2023-06-14T11:37:21;3.47;;;2.08;;
70322;SDS011;57735;56.264;43.898;2023-06-14T11:39:57;13.43;;;4.88;;
70322;SDS011;57735;56.264;43.898;2023-06-14T11:42:28;5.83;;;2.33;;
70322;SDS011;57735;56.264;43.898;2023-06-14T11:45:00;11.02;;;2.60;;
70322;SDS011;57735;56.264;43.898;2023-06-14T11:47:39;6.22;;;2.60;;
70322;SDS011;57735;56.264;43.898;2023-06-14T11:50:10;7.95;;;2.38;;
70322;SDS011;57735;56.264;43.898;2023-06-14T11:52:41;3.33;;;1.77;;
70322;SDS011;57735;56.264;43.898;2023-06-14T11:55:14;4.15;;;2.22;;
70322;SDS011;57735;56.264;43.898;2023-06-14T11:57:46;7.25;;;2.30;;
70322;SDS011;57735;56.264;43.898;2023-06-14T12:00:17;4.90;;;2.20;;
70322;SDS011;57735;56.264;43.898;2023-06-14T12:02:56;3.92;;;2.00;;
70322;SDS011;57735;56.264;43.898;2023-06-14T12:05:27;3.50;;;2.13;;
70322;SDS011;57735;56.264;43.898;2023-06-14T12:08:02;7.05;;;2.58;;
70322;SDS011;57735;56.264;43.898;2023-06-14T12:10:40;4.95;;;2.30;;
70322;SDS011;57735;56.264;43.898;2023-06-14T12:13:16;4.28;;;2.92;;
70322;SDS011;57735;56.264;43.898;2023-06-14T12:18:31;3.60;;;2.08;;
70322;SDS011;57735;56.264;43.898;2023-06-14T12:21:05;8.60;;;2.72;;
70322;SDS011;57735;56.264;43.898;2023-06-14T12:23:44;3.90;;;2.22;;
70322;SDS011;57735;56.264;43.898;2023-06-14T12:26:24;4.90;;;2.38;;
70322;SDS011;57735;56.264;43.898;2023-06-14T12:28:58;5.88;;;2.30;;
70322;SDS011;57735;56.264;43.898;2023-06-14T12:31:30;8.95;;;2.50;;
70322;SDS011;57735;56.264;43.898;2023-06-14T12:34:02;6.72;;;2.00;;
70322;SDS011;57735;56.264;43.898;2023-06-14T12:36:33;4.50;;;2.42;;
70322;SDS011;57735;56.264;43.898;2023-06-14T12:39:12;8.48;;;2.58;;
70322;SDS011;57735;56.264;43.898;2023-06-14T12:41:46;5.20;;;2.38;;
70322;SDS011;57735;56.264;43.898;2023-06-14T12:44:20;3.72;;;2.17;;
70322;SDS011;57735;56.264;43.898;2023-06-14T12:46:53;5.53;;;1.98;;
70322;SDS011;57735;56.264;43.898;2023-06-14T12:49:27;4.57;;;2.00;;
70322;SDS011;57735;56.264;43.898;2023-06-14T12:51:58;3.47;;;2.38;;
70322;SDS011;57735;56.264;43.898;2023-06-14T12:54:29;5.13;;;2.47;;
70322;SDS011;57735;56.264;43.898;2023-06-14T12:57:00;7.28;;;2.35;;
70322;SDS011;57735;56.264;43.898;2023-06-14T12:59:31;3.83;;;2.08;;
70322;SDS011;57735;56.264;43.898;2023-06-14T13:02:16;3.40;;;2.25;;
70322;SDS011;57735;56.264;43.898;2023-06-14T13:04:48;4.35;;;2.35;;
70322;SDS011;57735;56.264;43.898;2023-06-14T13:07:19;4.65;;;2.25;;
70322;SDS011;57735;56.264;43.898;2023-06-14T13:09:50;6.38;;;2.22;;
70322;SDS011;57735;56.264;43.898;2023-06-14T13:12:21;5.95;;;2.35;;
70322;SDS011;57735;56.264;43.898;2023-06-14T13:14:52;10.85;;;2.45;;
70322;SDS011;57735;56.264;43.898;2023-06-14T13:17:25;7.63;;;2.50;;
70322;SDS011;57735;56.264;43.898;2023-06-14T13:19:56;3.88;;;2.55;;
70322;SDS011;57735;56.264;43.898;2023-06-14T13:22:27;6.13;;;2.40;;
70322;SDS011;57735;56.264;43.898;2023-06-14T13:24:58;2.78;;;2.10;;
70322;SDS011;57735;56.264;43.898;2023-06-14T13:27:28;4.30;;;2.03;;
70322;SDS011;57735;56.264;43.898;2023-06-14T13:30:05;6.32;;;2.40;;
70322;SDS011;57735;56.264;43.898;2023-06-14T13:32:37;6.88;;;2.47;;
70322;SDS011;57735;56.264;43.898;2023-06-14T13:35:08;7.05;;;2.33;;
70322;SDS011;57735;56.264;43.898;2023-06-14T13:37:39;3.60;;;2.50;;
70322;SDS011;57735;56.264;43.898;2023-06-14T13:40:12;4.57;;;2.20;;
70322;SDS011;57735;56.264;43.898;2023-06-14T13:42:43;10.05;;;2.58;;
70322;SDS011;57735;56.264;43.898;2023-06-14T13:45:14;4.65;;;2.33;;
70322;SDS011;57735;56.264;43.898;2023-06-14T13:47:46;6.25;;;2.33;;
70322;SDS011;57735;56.264;43.898;2023-06-14T13:50:23;2.95;;;2.30;;
70322;SDS011;57735;56.264;43.898;2023-06-14T13:52:54;8.43;;;2.97;;
70322;SDS011;57735;56.264;43.898;2023-06-14T13:58:01;3.25;;;2.63;;
70322;SDS011;57735;56.264;43.898;2023-06-14T14:00:35;5.28;;;2.60;;
70322;SDS011;57735;56.264;43.898;2023-06-14T14:03:10;3.90;;;2.30;;
70322;SDS011;57735;56.264;43.898;2023-06-14T14:05:41;5.63;;;2.50;;
70322;SDS011;57735;56.264;43.898;2023-06-14T14:08:16;4.93;;;2.60;;
70322;SDS011;57735;56.264;43.898;2023-06-14T14:10:46;7.43;;;2.53;;
70322;SDS011;57735;56.264;43.898;2023-06-14T14:13:20;8.43;;;2.47;;
70322;SDS011;57735;56.264;43.898;2023-06-14T14:15:51;7.13;;;2.42;;
70322;SDS011;57735;56.264;43.898;2023-06-14T14:20:56;3.58;;;2.20;;
70322;SDS011;57735;56.264;43.898;2023-06-14T14:23:31;4.30;;;2.40;;
70322;SDS011;57735;56.264;43.898;2023-06-14T14:26:01;4.07;;;2.72;;
70322;SDS011;57735;56.264;43.898;2023-06-14T14:28:34;12.20;;;3.13;;
70322;SDS011;57735;56.264;43.898;2023-06-14T14:31:05;5.28;;;2.67;;
70322;SDS011;57735;56.264;43.898;2023-06-14T14:33:36;8.23;;;2.50;;
70322;SDS011;57735;56.264;43.898;2023-06-14T14:36:07;6.13;;;2.35;;
70322;SDS011;57735;56.264;43.898;2023-06-14T14:38:40;5.73;;;2.43;;
70322;SDS011;57735;56.264;43.898;2023-06-14T14:41:11;7.85;;;3.28;;
70322;SDS011;57735;56.264;43.898;2023-06-14T14:43:42;7.75;;;3.08;;
70322;SDS011;57735;56.264;43.898;2023-06-14T14:46:15;5.03;;;2.63;;
70322;SDS011;57735;56.264;43.898;2023-06-14T14:48:50;5.45;;;2.65;;
70322;SDS011;57735;56.264;43.898;2023-06-14T14:51:20;6.22;;;2.80;;
70322;SDS011;57735;56.264;43.898;2023-06-14T14:53:51;4.60;;;3.05;;
70322;SDS011;57735;56.264;43.898;2023-06-14T14:56:25;5.53;;;2.40;;
70322;SDS011;57735;56.264;43.898;2023-06-14T14:58:56;11.70;;;3.17;;
70322;SDS011;57735;56.264;43.898;2023-06-14T15:01:33;6.97;;;2.92;;
70322;SDS011;57735;56.264;43.898;2023-06-14T15:04:09;8.13;;;3.05;;
70322;SDS011;57735;56.264;43.898;2023-06-14T15:06:40;3.78;;;2.20;;
70322;SDS011;57735;56.264;43.898;2023-06-14T15:09:11;9.55;;;3.47;;
70322;SDS011;57735;56.264;43.898;2023-06-14T15:11:41;7.93;;;2.95;;
70322;SDS011;57735;56.264;43.898;2023-06-14T15:14:14;8.97;;;2.80;;
70322;SDS011;57735;56.264;43.898;2023-06-14T15:16:45;8.68;;;2.47;;
70322;SDS011;57735;56.264;43.898;2023-06-14T15:19:19;5.68;;;2.15;;
70322;SDS011;57735;56.264;43.898;2023-06-14T15:21:50;8.95;;;2.40;;
70322;SDS011;57735;56.264;43.898;2023-06-14T15:24:21;11.52;;;2.63;;
70322;SDS011;57735;56.264;43.898;2023-06-14T15:26:51;7.00;;;2.50;;
70322;SDS011;57735;56.264;43.898;2023-06-14T15:29:22;4.65;;;2.40;;
70322;SDS011;57735;56.264;43.898;2023-06-14T15:31:53;4.50;;;2.50;;
70322;SDS011;57735;56.264;43.898;2023-06-14T15:34:25;4.78;;;2.80;;
70322;SDS011;57735;56.264;43.898;2023-06-14T15:36:56;6.05;;;2.40;;
70322;SDS011;57735;56.264;43.898;2023-06-14T15:39:26;6.30;;;2.17;;
70322;SDS011;57735;56.264;43.898;2023-06-14T15:42:03;5.30;;;2.63;;
70322;SDS011;57735;56.264;43.898;2023-06-14T15:44:34;12.43;;;2.70;;
70322;SDS011;57735;56.264;43.898;2023-06-14T15:47:06;5.05;;;2.53;;
70322;SDS011;57735;56.264;43.898;2023-06-14T15:49:37;4.00;;;2.53;;
70322;SDS011;57735;56.264;43.898;2023-06-14T15:52:11;5.10;;;2.35;;